sensor_id;sensor_type;location;lat;lon;timestamp;P1;durP1;ratioP1;P2;durP2;ratioP2
28766;SDS011;15921;52.034;20.650;2024-02-26T00:02:02;41.60;;;19.98;;
28766;SDS011;15921;52.034;20.650;2024-02-26T00:04:28;43.70;;;20.10;;
28766;SDS011;15921;52.034;20.650;2024-02-26T00:06:54;46.42;;;19.35;;
28766;SDS011;15921;52.034;20.650;2024-02-26T00:09:21;46.10;;;17.40;;
28766;SDS011;15921;52.034;20.650;2024-02-26T00:11:46;42.42;;;18.02;;
28766;SDS011;15921;52.034;20.650;2024-02-26T00:14:12;42.88;;;18.05;;
28766;SDS011;15921;52.034;20.650;2024-02-26T00:16:42;49.58;;;18.98;;
28766;SDS011;15921;52.034;20.650;2024-02-26T00:19:07;44.28;;;19.38;;
28766;SDS011;15921;52.034;20.650;2024-02-26T00:21:33;40.88;;;17.60;;
28766;SDS011;15921;52.034;20.650;2024-02-26T00:23:59;42.22;;;17.98;;
28766;SDS011;15921;52.034;20.650;2024-02-26T00:26:24;44.63;;;18.08;;
28766;SDS011;15921;52.034;20.650;2024-02-26T00:28:50;43.35;;;18.38;;
28766;SDS011;15921;52.034;20.650;2024-02-26T00:31:16;42.88;;;19.33;;
28766;SDS011;15921;52.034;20.650;2024-02-26T00:33:42;38.78;;;17.00;;
28766;SDS011;15921;52.034;20.650;2024-02-26T00:36:08;43.28;;;18.77;;
28766;SDS011;15921;52.034;20.650;2024-02-26T00:38:34;39.55;;;17.23;;
28766;SDS011;15921;52.034;20.650;2024-02-26T00:41:01;38.95;;;17.85;;
28766;SDS011;15921;52.034;20.650;2024-02-26T00:43:26;44.45;;;20.08;;
28766;SDS011;15921;52.034;20.650;2024-02-26T00:45:52;54.20;;;22.05;;
28766;SDS011;15921;52.034;20.650;2024-02-26T00:48:18;37.65;;;17.77;;
28766;SDS011;15921;52.034;20.650;2024-02-26T00:50:43;44.63;;;19.50;;
28766;SDS011;15921;52.034;20.650;2024-02-26T00:53:09;41.38;;;19.85;;
28766;SDS011;15921;52.034;20.650;2024-02-26T00:55:35;42.38;;;18.95;;
28766;SDS011;15921;52.034;20.650;2024-02-26T00:58:01;44.65;;;19.67;;
28766;SDS011;15921;52.034;20.650;2024-02-26T01:00:26;42.25;;;19.38;;
28766;SDS011;15921;52.034;20.650;2024-02-26T01:02:52;40.50;;;18.48;;
28766;SDS011;15921;52.034;20.650;2024-02-26T01:05:18;39.70;;;17.35;;
28766;SDS011;15921;52.034;20.650;2024-02-26T01:07:44;43.15;;;18.50;;
28766;SDS011;15921;52.034;20.650;2024-02-26T01:10:09;39.88;;;18.42;;
28766;SDS011;15921;52.034;20.650;2024-02-26T01:12:35;45.47;;;18.60;;
28766;SDS011;15921;52.034;20.650;2024-02-26T01:15:02;45.35;;;18.55;;
28766;SDS011;15921;52.034;20.650;2024-02-26T01:17:28;41.78;;;17.65;;
28766;SDS011;15921;52.034;20.650;2024-02-26T01:19:54;35.42;;;17.10;;
28766;SDS011;15921;52.034;20.650;2024-02-26T01:22:19;41.22;;;19.05;;
28766;SDS011;15921;52.034;20.650;2024-02-26T01:24:45;43.35;;;20.65;;
28766;SDS011;15921;52.034;20.650;2024-02-26T01:27:11;50.35;;;19.05;;
28766;SDS011;15921;52.034;20.650;2024-02-26T01:29:37;45.17;;;18.67;;
28766;SDS011;15921;52.034;20.650;2024-02-26T01:32:03;47.95;;;18.05;;
28766;SDS011;15921;52.034;20.650;2024-02-26T01:34:30;46.47;;;19.63;;
28766;SDS011;15921;52.034;20.650;2024-02-26T01:36:56;41.10;;;18.13;;
28766;SDS011;15921;52.034;20.650;2024-02-26T01:39:22;38.60;;;16.92;;
28766;SDS011;15921;52.034;20.650;2024-02-26T01:41:48;38.22;;;17.98;;
28766;SDS011;15921;52.034;20.650;2024-02-26T01:44:13;39.30;;;17.17;;
28766;SDS011;15921;52.034;20.650;2024-02-26T01:46:39;39.92;;;16.75;;
28766;SDS011;15921;52.034;20.650;2024-02-26T01:49:05;43.30;;;17.42;;
28766;SDS011;15921;52.034;20.650;2024-02-26T01:51:33;43.70;;;18.38;;
28766;SDS011;15921;52.034;20.650;2024-02-26T01:54:01;36.40;;;17.48;;
28766;SDS011;15921;52.034;20.650;2024-02-26T01:56:28;42.70;;;18.52;;
28766;SDS011;15921;52.034;20.650;2024-02-26T01:58:58;39.05;;;17.77;;
28766;SDS011;15921;52.034;20.650;2024-02-26T02:01:28;42.95;;;16.80;;
28766;SDS011;15921;52.034;20.650;2024-02-26T02:03:56;45.33;;;18.27;;
28766;SDS011;15921;52.034;20.650;2024-02-26T02:06:24;42.50;;;18.10;;
28766;SDS011;15921;52.034;20.650;2024-02-26T02:08:49;39.30;;;16.40;;
28766;SDS011;15921;52.034;20.650;2024-02-26T02:11:16;37.75;;;16.33;;
28766;SDS011;15921;52.034;20.650;2024-02-26T02:13:42;37.60;;;15.90;;
28766;SDS011;15921;52.034;20.650;2024-02-26T02:16:08;36.58;;;16.02;;
28766;SDS011;15921;52.034;20.650;2024-02-26T02:18:34;34.08;;;14.82;;
28766;SDS011;15921;52.034;20.650;2024-02-26T02:21:00;39.50;;;15.80;;
28766;SDS011;15921;52.034;20.650;2024-02-26T02:23:26;35.22;;;16.42;;
28766;SDS011;15921;52.034;20.650;2024-02-26T02:25:52;34.15;;;14.68;;
28766;SDS011;15921;52.034;20.650;2024-02-26T02:28:20;35.50;;;15.10;;
28766;SDS011;15921;52.034;20.650;2024-02-26T02:30:46;33.28;;;15.40;;
28766;SDS011;15921;52.034;20.650;2024-02-26T02:33:13;31.83;;;14.60;;
28766;SDS011;15921;52.034;20.650;2024-02-26T02:35:40;34.58;;;14.88;;
28766;SDS011;15921;52.034;20.650;2024-02-26T02:38:06;34.17;;;15.57;;
28766;SDS011;15921;52.034;20.650;2024-02-26T02:40:32;34.08;;;15.02;;
28766;SDS011;15921;52.034;20.650;2024-02-26T02:42:58;38.10;;;15.90;;
28766;SDS011;15921;52.034;20.650;2024-02-26T02:45:25;33.83;;;14.88;;
28766;SDS011;15921;52.034;20.650;2024-02-26T02:47:50;39.22;;;16.05;;
28766;SDS011;15921;52.034;20.650;2024-02-26T02:50:16;32.97;;;15.32;;
28766;SDS011;15921;52.034;20.650;2024-02-26T02:52:42;37.42;;;15.88;;
28766;SDS011;15921;52.034;20.650;2024-02-26T02:55:07;36.30;;;15.95;;
28766;SDS011;15921;52.034;20.650;2024-02-26T02:57:33;41.13;;;16.38;;
28766;SDS011;15921;52.034;20.650;2024-02-26T02:59:59;41.45;;;16.15;;
28766;SDS011;15921;52.034;20.650;2024-02-26T03:02:25;35.88;;;14.52;;
28766;SDS011;15921;52.034;20.650;2024-02-26T03:04:50;38.38;;;15.43;;
28766;SDS011;15921;52.034;20.650;2024-02-26T03:07:16;31.20;;;13.73;;
28766;SDS011;15921;52.034;20.650;2024-02-26T03:09:42;38.75;;;15.40;;
28766;SDS011;15921;52.034;20.650;2024-02-26T03:12:08;37.30;;;15.98;;
28766;SDS011;15921;52.034;20.650;2024-02-26T03:14:34;46.40;;;17.15;;
28766;SDS011;15921;52.034;20.650;2024-02-26T03:16:59;44.40;;;16.05;;
28766;SDS011;15921;52.034;20.650;2024-02-26T03:19:25;34.05;;;15.70;;
28766;SDS011;15921;52.034;20.650;2024-02-26T03:21:51;45.28;;;18.35;;
28766;SDS011;15921;52.034;20.650;2024-02-26T03:24:17;65.15;;;23.67;;
28766;SDS011;15921;52.034;20.650;2024-02-26T03:26:42;39.38;;;17.23;;
28766;SDS011;15921;52.034;20.650;2024-02-26T03:29:08;40.80;;;16.33;;
28766;SDS011;15921;52.034;20.650;2024-02-26T03:31:34;40.85;;;18.25;;
28766;SDS011;15921;52.034;20.650;2024-02-26T03:34:00;46.28;;;19.38;;
28766;SDS011;15921;52.034;20.650;2024-02-26T03:36:25;56.17;;;22.08;;
28766;SDS011;15921;52.034;20.650;2024-02-26T03:38:51;52.28;;;22.50;;
28766;SDS011;15921;52.034;20.650;2024-02-26T03:41:17;43.00;;;17.98;;
28766;SDS011;15921;52.034;20.650;2024-02-26T03:43:43;40.17;;;17.05;;
28766;SDS011;15921;52.034;20.650;2024-02-26T03:46:10;44.38;;;17.50;;
28766;SDS011;15921;52.034;20.650;2024-02-26T03:48:38;39.25;;;17.15;;
28766;SDS011;15921;52.034;20.650;2024-02-26T03:51:05;35.72;;;15.43;;
28766;SDS011;15921;52.034;20.650;2024-02-26T03:53:33;36.28;;;14.20;;
28766;SDS011;15921;52.034;20.650;2024-02-26T03:56:02;37.55;;;16.27;;
28766;SDS011;15921;52.034;20.650;2024-02-26T03:58:29;43.95;;;17.98;;
28766;SDS011;15921;52.034;20.650;2024-02-26T04:00:54;49.38;;;18.77;;
28766;SDS011;15921;52.034;20.650;2024-02-26T04:03:20;36.45;;;15.88;;
28766;SDS011;15921;52.034;20.650;2024-02-26T04:05:46;36.58;;;14.95;;
28766;SDS011;15921;52.034;20.650;2024-02-26T04:08:12;35.35;;;16.08;;
28766;SDS011;15921;52.034;20.650;2024-02-26T04:10:38;37.25;;;15.20;;
28766;SDS011;15921;52.034;20.650;2024-02-26T04:13:04;34.88;;;15.13;;
28766;SDS011;15921;52.034;20.650;2024-02-26T04:15:31;37.15;;;15.00;;
28766;SDS011;15921;52.034;20.650;2024-02-26T04:17:57;32.17;;;14.65;;
28766;SDS011;15921;52.034;20.650;2024-02-26T04:20:23;34.17;;;16.30;;
28766;SDS011;15921;52.034;20.650;2024-02-26T04:22:48;41.40;;;16.70;;
28766;SDS011;15921;52.034;20.650;2024-02-26T04:25:14;37.70;;;15.80;;
28766;SDS011;15921;52.034;20.650;2024-02-26T04:27:40;37.00;;;15.52;;
28766;SDS011;15921;52.034;20.650;2024-02-26T04:30:06;35.17;;;14.95;;
28766;SDS011;15921;52.034;20.650;2024-02-26T04:32:33;35.17;;;14.65;;
28766;SDS011;15921;52.034;20.650;2024-02-26T04:34:59;44.20;;;17.70;;
28766;SDS011;15921;52.034;20.650;2024-02-26T04:37:26;41.15;;;18.75;;
28766;SDS011;15921;52.034;20.650;2024-02-26T04:39:59;47.75;;;19.80;;
28766;SDS011;15921;52.034;20.650;2024-02-26T04:42:26;48.75;;;20.80;;
28766;SDS011;15921;52.034;20.650;2024-02-26T04:44:52;45.35;;;18.38;;
28766;SDS011;15921;52.034;20.650;2024-02-26T04:47:18;43.95;;;18.63;;
28766;SDS011;15921;52.034;20.650;2024-02-26T04:49:43;45.38;;;17.63;;
28766;SDS011;15921;52.034;20.650;2024-02-26T04:52:09;41.83;;;17.55;;
28766;SDS011;15921;52.034;20.650;2024-02-26T04:54:35;44.65;;;18.15;;
28766;SDS011;15921;52.034;20.650;2024-02-26T04:57:00;43.95;;;18.60;;
28766;SDS011;15921;52.034;20.650;2024-02-26T04:59:26;39.03;;;17.40;;
28766;SDS011;15921;52.034;20.650;2024-02-26T05:01:52;38.45;;;16.75;;
28766;SDS011;15921;52.034;20.650;2024-02-26T05:04:18;46.20;;;17.95;;
28766;SDS011;15921;52.034;20.650;2024-02-26T05:06:44;43.95;;;18.00;;
28766;SDS011;15921;52.034;20.650;2024-02-26T05:09:10;41.88;;;19.23;;
28766;SDS011;15921;52.034;20.650;2024-02-26T05:11:35;47.00;;;21.05;;
28766;SDS011;15921;52.034;20.650;2024-02-26T05:14:01;53.78;;;23.00;;
28766;SDS011;15921;52.034;20.650;2024-02-26T05:16:27;67.43;;;26.15;;
28766;SDS011;15921;52.034;20.650;2024-02-26T05:18:53;58.85;;;25.52;;
28766;SDS011;15921;52.034;20.650;2024-02-26T05:21:18;61.92;;;26.63;;
28766;SDS011;15921;52.034;20.650;2024-02-26T05:23:44;56.45;;;24.98;;
28766;SDS011;15921;52.034;20.650;2024-02-26T05:26:10;58.85;;;23.73;;
28766;SDS011;15921;52.034;20.650;2024-02-26T05:28:36;55.20;;;23.10;;
28766;SDS011;15921;52.034;20.650;2024-02-26T05:31:04;51.78;;;21.85;;
28766;SDS011;15921;52.034;20.650;2024-02-26T05:33:30;43.10;;;19.05;;
28766;SDS011;15921;52.034;20.650;2024-02-26T05:35:56;42.00;;;17.92;;
28766;SDS011;15921;52.034;20.650;2024-02-26T05:38:28;42.83;;;18.35;;
28766;SDS011;15921;52.034;20.650;2024-02-26T05:40:55;41.75;;;18.85;;
28766;SDS011;15921;52.034;20.650;2024-02-26T05:43:21;36.90;;;17.23;;
28766;SDS011;15921;52.034;20.650;2024-02-26T05:45:47;38.92;;;16.95;;
28766;SDS011;15921;52.034;20.650;2024-02-26T05:48:12;37.58;;;17.33;;
28766;SDS011;15921;52.034;20.650;2024-02-26T05:50:38;37.67;;;17.20;;
28766;SDS011;15921;52.034;20.650;2024-02-26T05:53:04;38.35;;;17.50;;
28766;SDS011;15921;52.034;20.650;2024-02-26T05:55:29;35.97;;;16.05;;
28766;SDS011;15921;52.034;20.650;2024-02-26T05:57:55;38.97;;;16.40;;
28766;SDS011;15921;52.034;20.650;2024-02-26T06:00:21;42.10;;;17.73;;
28766;SDS011;15921;52.034;20.650;2024-02-26T06:02:46;42.47;;;19.27;;
28766;SDS011;15921;52.034;20.650;2024-02-26T06:05:12;55.38;;;21.88;;
28766;SDS011;15921;52.034;20.650;2024-02-26T06:07:38;49.80;;;23.45;;
28766;SDS011;15921;52.034;20.650;2024-02-26T06:10:04;52.67;;;22.25;;
28766;SDS011;15921;52.034;20.650;2024-02-26T06:12:30;52.30;;;25.35;;
28766;SDS011;15921;52.034;20.650;2024-02-26T06:14:56;50.53;;;22.48;;
28766;SDS011;15921;52.034;20.650;2024-02-26T06:17:22;81.55;;;40.58;;
28766;SDS011;15921;52.034;20.650;2024-02-26T06:19:48;71.97;;;35.70;;
28766;SDS011;15921;52.034;20.650;2024-02-26T06:22:13;64.90;;;28.80;;
28766;SDS011;15921;52.034;20.650;2024-02-26T06:24:39;52.97;;;26.60;;
28766;SDS011;15921;52.034;20.650;2024-02-26T06:27:05;48.42;;;23.80;;
28766;SDS011;15921;52.034;20.650;2024-02-26T06:29:30;45.15;;;23.30;;
28766;SDS011;15921;52.034;20.650;2024-02-26T06:31:56;37.85;;;16.90;;
28766;SDS011;15921;52.034;20.650;2024-02-26T06:34:22;39.58;;;18.23;;
28766;SDS011;15921;52.034;20.650;2024-02-26T06:36:47;41.67;;;19.83;;
28766;SDS011;15921;52.034;20.650;2024-02-26T06:39:13;46.25;;;18.70;;
28766;SDS011;15921;52.034;20.650;2024-02-26T06:41:41;47.15;;;20.52;;
28766;SDS011;15921;52.034;20.650;2024-02-26T06:44:06;44.83;;;19.05;;
28766;SDS011;15921;52.034;20.650;2024-02-26T06:46:32;43.80;;;19.45;;
28766;SDS011;15921;52.034;20.650;2024-02-26T06:48:58;37.40;;;18.48;;
28766;SDS011;15921;52.034;20.650;2024-02-26T06:51:24;42.85;;;17.38;;
28766;SDS011;15921;52.034;20.650;2024-02-26T06:53:50;36.22;;;17.45;;
28766;SDS011;15921;52.034;20.650;2024-02-26T06:56:15;38.67;;;17.05;;
28766;SDS011;15921;52.034;20.650;2024-02-26T06:58:41;34.00;;;16.00;;
28766;SDS011;15921;52.034;20.650;2024-02-26T07:01:07;37.83;;;16.52;;
28766;SDS011;15921;52.034;20.650;2024-02-26T07:03:33;37.42;;;18.10;;
28766;SDS011;15921;52.034;20.650;2024-02-26T07:05:59;43.88;;;19.10;;
28766;SDS011;15921;52.034;20.650;2024-02-26T07:08:25;38.97;;;17.00;;
28766;SDS011;15921;52.034;20.650;2024-02-26T07:10:50;35.85;;;15.77;;
28766;SDS011;15921;52.034;20.650;2024-02-26T07:13:16;34.10;;;15.90;;
28766;SDS011;15921;52.034;20.650;2024-02-26T07:15:42;35.70;;;15.90;;
28766;SDS011;15921;52.034;20.650;2024-02-26T07:18:08;34.80;;;16.65;;
28766;SDS011;15921;52.034;20.650;2024-02-26T07:20:35;30.80;;;15.10;;
28766;SDS011;15921;52.034;20.650;2024-02-26T07:23:01;34.92;;;15.23;;
28766;SDS011;15921;52.034;20.650;2024-02-26T07:25:26;34.42;;;16.80;;
28766;SDS011;15921;52.034;20.650;2024-02-26T07:27:52;36.13;;;17.23;;
28766;SDS011;15921;52.034;20.650;2024-02-26T07:30:18;39.35;;;18.17;;
28766;SDS011;15921;52.034;20.650;2024-02-26T07:32:43;40.05;;;17.75;;
28766;SDS011;15921;52.034;20.650;2024-02-26T07:35:09;34.60;;;16.95;;
28766;SDS011;15921;52.034;20.650;2024-02-26T07:37:35;36.45;;;17.58;;
28766;SDS011;15921;52.034;20.650;2024-02-26T07:40:01;48.85;;;21.02;;
28766;SDS011;15921;52.034;20.650;2024-02-26T07:42:27;49.95;;;24.05;;
28766;SDS011;15921;52.034;20.650;2024-02-26T07:44:52;77.13;;;35.47;;
28766;SDS011;15921;52.034;20.650;2024-02-26T07:47:18;76.43;;;34.00;;
28766;SDS011;15921;52.034;20.650;2024-02-26T07:49:44;73.28;;;33.13;;
28766;SDS011;15921;52.034;20.650;2024-02-26T07:52:10;62.20;;;30.10;;
28766;SDS011;15921;52.034;20.650;2024-02-26T07:54:36;53.25;;;25.73;;
28766;SDS011;15921;52.034;20.650;2024-02-26T07:57:01;35.45;;;17.70;;
28766;SDS011;15921;52.034;20.650;2024-02-26T07:59:30;32.92;;;16.30;;
28766;SDS011;15921;52.034;20.650;2024-02-26T08:01:56;32.08;;;15.50;;
28766;SDS011;15921;52.034;20.650;2024-02-26T08:04:22;32.10;;;15.43;;
28766;SDS011;15921;52.034;20.650;2024-02-26T08:06:48;25.80;;;14.88;;
28766;SDS011;15921;52.034;20.650;2024-02-26T08:09:13;25.02;;;13.63;;
28766;SDS011;15921;52.034;20.650;2024-02-26T08:11:39;25.30;;;13.30;;
28766;SDS011;15921;52.034;20.650;2024-02-26T08:14:05;43.80;;;14.43;;
28766;SDS011;15921;52.034;20.650;2024-02-26T08:16:30;21.90;;;12.77;;
28766;SDS011;15921;52.034;20.650;2024-02-26T08:18:56;23.65;;;12.00;;
28766;SDS011;15921;52.034;20.650;2024-02-26T08:21:22;19.42;;;10.95;;
28766;SDS011;15921;52.034;20.650;2024-02-26T08:23:48;19.80;;;11.30;;
28766;SDS011;15921;52.034;20.650;2024-02-26T08:26:14;18.20;;;10.05;;
28766;SDS011;15921;52.034;20.650;2024-02-26T08:28:39;19.55;;;11.60;;
28766;SDS011;15921;52.034;20.650;2024-02-26T08:31:05;19.48;;;11.60;;
28766;SDS011;15921;52.034;20.650;2024-02-26T08:33:31;19.35;;;12.30;;
28766;SDS011;15921;52.034;20.650;2024-02-26T08:35:59;24.17;;;12.95;;
28766;SDS011;15921;52.034;20.650;2024-02-26T08:38:24;25.00;;;12.20;;
28766;SDS011;15921;52.034;20.650;2024-02-26T08:40:50;24.10;;;12.48;;
28766;SDS011;15921;52.034;20.650;2024-02-26T08:43:16;24.77;;;12.90;;
28766;SDS011;15921;52.034;20.650;2024-02-26T08:45:41;21.70;;;12.90;;
28766;SDS011;15921;52.034;20.650;2024-02-26T08:48:07;21.65;;;12.10;;
28766;SDS011;15921;52.034;20.650;2024-02-26T08:50:32;22.02;;;13.45;;
28766;SDS011;15921;52.034;20.650;2024-02-26T08:52:58;21.20;;;12.68;;
28766;SDS011;15921;52.034;20.650;2024-02-26T08:55:26;21.52;;;13.00;;
28766;SDS011;15921;52.034;20.650;2024-02-26T08:57:51;23.70;;;13.23;;
28766;SDS011;15921;52.034;20.650;2024-02-26T09:00:17;20.05;;;12.30;;
28766;SDS011;15921;52.034;20.650;2024-02-26T09:02:45;20.90;;;11.13;;
28766;SDS011;15921;52.034;20.650;2024-02-26T09:05:12;18.10;;;11.48;;
28766;SDS011;15921;52.034;20.650;2024-02-26T09:07:38;24.80;;;13.32;;
28766;SDS011;15921;52.034;20.650;2024-02-26T09:10:04;19.55;;;12.75;;
28766;SDS011;15921;52.034;20.650;2024-02-26T09:12:31;20.73;;;12.52;;
28766;SDS011;15921;52.034;20.650;2024-02-26T09:14:56;20.90;;;12.57;;
28766;SDS011;15921;52.034;20.650;2024-02-26T09:17:22;21.80;;;12.07;;
28766;SDS011;15921;52.034;20.650;2024-02-26T09:19:48;20.27;;;11.90;;
28766;SDS011;15921;52.034;20.650;2024-02-26T09:22:14;21.60;;;12.77;;
28766;SDS011;15921;52.034;20.650;2024-02-26T09:24:39;17.80;;;10.68;;
28766;SDS011;15921;52.034;20.650;2024-02-26T09:27:05;18.85;;;11.30;;
28766;SDS011;15921;52.034;20.650;2024-02-26T09:29:31;19.08;;;11.18;;
28766;SDS011;15921;52.034;20.650;2024-02-26T09:31:57;18.65;;;12.23;;
28766;SDS011;15921;52.034;20.650;2024-02-26T09:34:23;18.83;;;11.82;;
28766;SDS011;15921;52.034;20.650;2024-02-26T09:36:49;17.60;;;11.65;;
28766;SDS011;15921;52.034;20.650;2024-02-26T09:39:15;19.63;;;12.35;;
28766;SDS011;15921;52.034;20.650;2024-02-26T09:41:45;16.92;;;10.05;;
28766;SDS011;15921;52.034;20.650;2024-02-26T09:44:11;15.18;;;10.27;;
28766;SDS011;15921;52.034;20.650;2024-02-26T09:46:39;17.70;;;10.45;;
28766;SDS011;15921;52.034;20.650;2024-02-26T09:49:05;17.88;;;11.43;;
28766;SDS011;15921;52.034;20.650;2024-02-26T09:51:33;16.35;;;10.90;;
28766;SDS011;15921;52.034;20.650;2024-02-26T09:53:59;16.40;;;10.90;;
28766;SDS011;15921;52.034;20.650;2024-02-26T09:56:26;17.90;;;10.95;;
28766;SDS011;15921;52.034;20.650;2024-02-26T09:58:52;17.48;;;11.50;;
28766;SDS011;15921;52.034;20.650;2024-02-26T10:01:20;18.23;;;12.15;;
28766;SDS011;15921;52.034;20.650;2024-02-26T10:03:48;16.58;;;10.65;;
28766;SDS011;15921;52.034;20.650;2024-02-26T10:06:20;17.30;;;10.77;;
28766;SDS011;15921;52.034;20.650;2024-02-26T10:08:46;16.23;;;10.52;;
28766;SDS011;15921;52.034;20.650;2024-02-26T10:11:14;16.17;;;10.77;;
28766;SDS011;15921;52.034;20.650;2024-02-26T10:13:41;14.50;;;9.80;;
28766;SDS011;15921;52.034;20.650;2024-02-26T10:16:06;15.05;;;10.07;;
28766;SDS011;15921;52.034;20.650;2024-02-26T10:18:45;16.35;;;9.45;;
28766;SDS011;15921;52.034;20.650;2024-02-26T10:21:12;15.90;;;10.80;;
28766;SDS011;15921;52.034;20.650;2024-02-26T10:23:39;18.38;;;10.77;;
28766;SDS011;15921;52.034;20.650;2024-02-26T10:26:04;16.48;;;10.98;;
28766;SDS011;15921;52.034;20.650;2024-02-26T10:28:30;17.92;;;12.55;;
28766;SDS011;15921;52.034;20.650;2024-02-26T10:30:56;21.58;;;12.70;;
28766;SDS011;15921;52.034;20.650;2024-02-26T10:33:22;20.20;;;13.05;;
28766;SDS011;15921;52.034;20.650;2024-02-26T10:35:47;19.65;;;12.25;;
28766;SDS011;15921;52.034;20.650;2024-02-26T10:38:13;19.67;;;13.18;;
28766;SDS011;15921;52.034;20.650;2024-02-26T10:40:42;21.70;;;12.80;;
28766;SDS011;15921;52.034;20.650;2024-02-26T10:43:08;23.65;;;14.50;;
28766;SDS011;15921;52.034;20.650;2024-02-26T10:45:33;19.98;;;13.00;;
28766;SDS011;15921;52.034;20.650;2024-02-26T10:48:00;22.92;;;13.88;;
28766;SDS011;15921;52.034;20.650;2024-02-26T10:50:25;21.92;;;13.02;;
28766;SDS011;15921;52.034;20.650;2024-02-26T10:52:51;23.98;;;13.07;;
28766;SDS011;15921;52.034;20.650;2024-02-26T10:55:20;19.55;;;12.27;;
28766;SDS011;15921;52.034;20.650;2024-02-26T10:57:47;17.65;;;11.13;;
28766;SDS011;15921;52.034;20.650;2024-02-26T11:00:15;16.80;;;10.65;;
28766;SDS011;15921;52.034;20.650;2024-02-26T11:02:41;20.52;;;12.10;;
28766;SDS011;15921;52.034;20.650;2024-02-26T11:05:09;21.23;;;13.32;;
28766;SDS011;15921;52.034;20.650;2024-02-26T11:07:37;22.52;;;12.25;;
28766;SDS011;15921;52.034;20.650;2024-02-26T11:10:06;18.52;;;12.43;;
28766;SDS011;15921;52.034;20.650;2024-02-26T11:12:33;21.42;;;12.02;;
28766;SDS011;15921;52.034;20.650;2024-02-26T11:15:03;18.50;;;11.68;;
28766;SDS011;15921;52.034;20.650;2024-02-26T11:17:29;16.85;;;10.77;;
28766;SDS011;15921;52.034;20.650;2024-02-26T11:19:57;15.88;;;10.70;;
28766;SDS011;15921;52.034;20.650;2024-02-26T11:22:24;16.63;;;10.77;;
28766;SDS011;15921;52.034;20.650;2024-02-26T11:24:54;18.52;;;10.10;;
28766;SDS011;15921;52.034;20.650;2024-02-26T11:27:45;14.40;;;10.25;;
28766;SDS011;15921;52.034;20.650;2024-02-26T11:30:22;13.57;;;9.13;;
28766;SDS011;15921;52.034;20.650;2024-02-26T11:32:49;14.32;;;9.05;;
28766;SDS011;15921;52.034;20.650;2024-02-26T11:35:17;15.63;;;9.65;;
28766;SDS011;15921;52.034;20.650;2024-02-26T11:38:01;16.80;;;10.95;;
28766;SDS011;15921;52.034;20.650;2024-02-26T11:40:28;15.82;;;10.63;;
28766;SDS011;15921;52.034;20.650;2024-02-26T11:42:56;15.13;;;8.90;;
28766;SDS011;15921;52.034;20.650;2024-02-26T11:45:47;14.55;;;9.40;;
28766;SDS011;15921;52.034;20.650;2024-02-26T11:48:24;14.30;;;9.57;;
28766;SDS011;15921;52.034;20.650;2024-02-26T11:50:54;14.48;;;8.25;;
28766;SDS011;15921;52.034;20.650;2024-02-26T11:55:46;10.65;;;7.20;;
28766;SDS011;15921;52.034;20.650;2024-02-26T11:58:12;11.77;;;6.82;;
28766;SDS011;15921;52.034;20.650;2024-02-26T12:00:39;13.45;;;7.90;;
28766;SDS011;15921;52.034;20.650;2024-02-26T12:03:05;9.48;;;6.65;;
28766;SDS011;15921;52.034;20.650;2024-02-26T12:05:33;8.50;;;6.78;;
28766;SDS011;15921;52.034;20.650;2024-02-26T12:08:05;10.25;;;6.38;;
28766;SDS011;15921;52.034;20.650;2024-02-26T12:10:33;10.65;;;6.60;;
28766;SDS011;15921;52.034;20.650;2024-02-26T12:15:40;8.05;;;6.00;;
28766;SDS011;15921;52.034;20.650;2024-02-26T12:18:08;6.78;;;5.20;;
28766;SDS011;15921;52.034;20.650;2024-02-26T12:20:38;7.80;;;5.38;;
28766;SDS011;15921;52.034;20.650;2024-02-26T12:23:04;12.55;;;5.10;;
28766;SDS011;15921;52.034;20.650;2024-02-26T12:25:30;7.13;;;5.18;;
28766;SDS011;15921;52.034;20.650;2024-02-26T12:27:57;7.15;;;5.43;;
28766;SDS011;15921;52.034;20.650;2024-02-26T12:30:24;10.43;;;6.68;;
28766;SDS011;15921;52.034;20.650;2024-02-26T12:32:54;11.02;;;5.70;;
28766;SDS011;15921;52.034;20.650;2024-02-26T12:35:25;9.10;;;5.95;;
28766;SDS011;15921;52.034;20.650;2024-02-26T12:37:56;8.55;;;5.28;;
28766;SDS011;15921;52.034;20.650;2024-02-26T12:40:22;7.93;;;5.63;;
28766;SDS011;15921;52.034;20.650;2024-02-26T12:42:48;8.68;;;5.07;;
28766;SDS011;15921;52.034;20.650;2024-02-26T12:45:14;6.80;;;4.93;;
28766;SDS011;15921;52.034;20.650;2024-02-26T12:47:42;7.80;;;4.47;;
28766;SDS011;15921;52.034;20.650;2024-02-26T12:50:09;6.82;;;4.82;;
28766;SDS011;15921;52.034;20.650;2024-02-26T12:52:45;7.28;;;4.57;;
28766;SDS011;15921;52.034;20.650;2024-02-26T12:55:15;6.22;;;3.78;;
28766;SDS011;15921;52.034;20.650;2024-02-26T12:57:42;6.40;;;4.38;;
28766;SDS011;15921;52.034;20.650;2024-02-26T13:00:10;5.57;;;4.13;;
28766;SDS011;15921;52.034;20.650;2024-02-26T13:02:39;6.32;;;4.72;;
28766;SDS011;15921;52.034;20.650;2024-02-26T13:05:09;8.25;;;4.60;;
28766;SDS011;15921;52.034;20.650;2024-02-26T13:07:40;7.15;;;4.82;;
28766;SDS011;15921;52.034;20.650;2024-02-26T13:10:07;6.32;;;4.85;;
28766;SDS011;15921;52.034;20.650;2024-02-26T13:12:33;6.90;;;4.45;;
28766;SDS011;15921;52.034;20.650;2024-02-26T13:15:02;6.03;;;3.97;;
28766;SDS011;15921;52.034;20.650;2024-02-26T13:17:32;4.82;;;3.92;;
28766;SDS011;15921;52.034;20.650;2024-02-26T13:19:58;6.03;;;3.13;;
28766;SDS011;15921;52.034;20.650;2024-02-26T13:22:23;5.10;;;3.63;;
28766;SDS011;15921;52.034;20.650;2024-02-26T13:24:56;4.47;;;3.28;;
28766;SDS011;15921;52.034;20.650;2024-02-26T13:27:22;4.65;;;3.08;;
28766;SDS011;15921;52.034;20.650;2024-02-26T13:29:48;7.28;;;3.40;;
28766;SDS011;15921;52.034;20.650;2024-02-26T13:32:26;8.82;;;3.70;;
28766;SDS011;15921;52.034;20.650;2024-02-26T13:35:03;4.07;;;3.28;;
28766;SDS011;15921;52.034;20.650;2024-02-26T13:37:39;3.97;;;2.65;;
28766;SDS011;15921;52.034;20.650;2024-02-26T13:40:05;4.57;;;3.05;;
28766;SDS011;15921;52.034;20.650;2024-02-26T13:42:36;3.55;;;2.75;;
28766;SDS011;15921;52.034;20.650;2024-02-26T13:45:02;4.93;;;3.10;;
28766;SDS011;15921;52.034;20.650;2024-02-26T13:47:31;4.00;;;2.97;;
28766;SDS011;15921;52.034;20.650;2024-02-26T13:50:00;7.68;;;2.85;;
28766;SDS011;15921;52.034;20.650;2024-02-26T13:52:26;3.70;;;2.97;;
28766;SDS011;15921;52.034;20.650;2024-02-26T13:54:52;3.70;;;2.65;;
28766;SDS011;15921;52.034;20.650;2024-02-26T13:57:21;3.85;;;2.80;;
28766;SDS011;15921;52.034;20.650;2024-02-26T13:59:46;10.00;;;3.15;;
28766;SDS011;15921;52.034;20.650;2024-02-26T14:02:12;3.80;;;2.92;;
28766;SDS011;15921;52.034;20.650;2024-02-26T14:04:38;4.53;;;3.05;;
28766;SDS011;15921;52.034;20.650;2024-02-26T14:07:04;5.65;;;2.90;;
28766;SDS011;15921;52.034;20.650;2024-02-26T14:09:30;4.70;;;3.00;;
28766;SDS011;15921;52.034;20.650;2024-02-26T14:11:57;4.47;;;3.05;;
28766;SDS011;15921;52.034;20.650;2024-02-26T14:14:23;3.60;;;3.00;;
28766;SDS011;15921;52.034;20.650;2024-02-26T14:16:50;6.47;;;3.00;;